Time;durP1;ratioP1;P1;durP2;ratioP2;P2;SDS_P1;SDS_P2;PMS_P1;PMS_P2;Temp;Humidity;BMP_temperature;BMP_pressure;BME280_temperature;BME280_humidity;BME280_pressure;Samples;Min_cycle;Max_cycle;Signal;HPM_P1;HPM_P2
2021/07/13 00:01:26;;;;;;;10.77;9.52;;;;;13.80;100777.00;;;;5045678;28;20021;-70
2021/07/13 00:03:53;;;;;;;13.57;10.00;;;;;13.80;100784.00;;;;5046496;28;20047;-70
2021/07/13 00:06:21;;;;;;;12.38;9.65;;;;;13.70;100781.00;;;;5045987;28;20094;-71
2021/07/13 00:08:51;;;;;;;12.35;11.13;;;;;13.70;100788.00;;;;5045807;28;20079;-72
2021/07/13 00:11:21;;;;;;;13.00;10.45;;;;;13.60;100792.00;;;;5045774;28;20037;-72
2021/07/13 00:13:48;;;;;;;14.70;11.25;;;;;13.60;100780.00;;;;5046030;28;20032;-70
2021/07/13 00:16:16;;;;;;;15.30;10.32;;;;;13.60;100785.00;;;;5051738;28;20086;-70
2021/07/13 00:18:43;;;;;;;16.75;10.48;;;;;13.50;100789.00;;;;5051278;28;20032;-71
2021/07/13 00:21:10;;;;;;;16.45;10.35;;;;;13.50;100807.00;;;;5052368;28;20077;-71
2021/07/13 00:23:38;;;;;;;14.75;10.80;;;;;13.50;100797.00;;;;5052666;28;20082;-73
2021/07/13 00:26:05;;;;;;;16.17;11.20;;;;;13.50;100791.00;;;;5052158;28;20040;-71
2021/07/13 00:28:33;;;;;;;12.45;10.63;;;;;13.50;100808.00;;;;5052277;28;20094;-70
2021/07/13 00:31:00;;;;;;;14.18;9.38;;;;;13.40;100799.00;;;;5052436;28;20025;-71
2021/07/13 00:33:26;;;;;;;16.15;10.25;;;;;13.30;100794.00;;;;5051862;28;20033;-70
2021/07/13 00:35:53;;;;;;;13.38;10.60;;;;;13.30;100798.00;;;;5052729;28;20400;-73
2021/07/13 00:38:20;;;;;;;19.42;11.15;;;;;13.30;100789.00;;;;5052620;28;20036;-72
2021/07/13 00:40:47;;;;;;;14.23;10.48;;;;;13.40;100797.00;;;;5052458;28;20074;-69
2021/07/13 00:43:13;;;;;;;21.05;11.32;;;;;13.50;100792.00;;;;5052201;28;20029;-72
2021/07/13 00:45:40;;;;;;;18.77;11.25;;;;;13.40;100780.00;;;;5052369;28;20029;-71
2021/07/13 00:48:07;;;;;;;17.00;11.15;;;;;13.40;100797.00;;;;5052183;28;20039;-69
2021/07/13 00:50:33;;;;;;;19.63;10.32;;;;;13.40;100807.00;;;;5052419;28;20029;-73
2021/07/13 00:53:03;;;;;;;19.52;12.23;;;;;13.40;100785.00;;;;5052335;28;20078;-72
2021/07/13 00:55:30;;;;;;;16.00;11.80;;;;;13.40;100807.00;;;;5052758;28;20087;-71
2021/07/13 00:57:57;;;;;;;16.73;9.15;;;;;13.20;100809.00;;;;5052481;28;20115;-70
2021/07/13 01:00:24;;;;;;;15.13;10.43;;;;;13.10;100796.00;;;;5052606;28;20369;-72
2021/07/13 01:02:57;;;;;;;17.10;11.63;;;;;13.20;100802.00;;;;5052071;28;20029;-69
2021/07/13 01:05:28;;;;;;;14.10;11.63;;;;;13.30;100816.00;;;;5052215;28;20115;-70
2021/07/13 01:08:24;;;;;;;22.30;12.20;;;;;13.40;100813.00;;;;5051788;28;20041;-72
2021/07/13 01:11:18;;;;;;;19.17;12.68;;;;;13.30;100814.00;;;;5052296;28;20025;-69
2021/07/13 01:14:08;;;;;;;21.38;12.23;;;;;13.10;100812.00;;;;5052222;28;20108;-71
2021/07/13 01:16:48;;;;;;;20.20;12.50;;;;;12.90;100812.00;;;;5051622;28;20037;-71
2021/07/13 01:19:23;;;;;;;21.00;12.90;;;;;13.10;100813.00;;;;5052437;28;20033;-72
2021/07/13 01:22:02;;;;;;;18.23;11.90;;;;;13.00;100815.00;;;;5052496;28;20049;-69
2021/07/13 01:24:38;;;;;;;21.65;12.50;;;;;12.90;100811.00;;;;5051965;28;20051;-73
2021/07/13 01:27:11;;;;;;;19.30;13.48;;;;;12.90;100817.00;;;;5049146;28;20056;-73
2021/07/13 01:29:43;;;;;;;15.38;11.65;;;;;12.90;100803.00;;;;5049195;28;20028;-69
2021/07/13 01:32:20;;;;;;;19.00;12.77;;;;;12.80;100817.00;;;;5049484;28;20029;-69
2021/07/13 01:34:56;;;;;;;19.88;13.30;;;;;12.90;100790.00;;;;5048737;28;20036;-74
2021/07/13 01:37:24;;;;;;;14.60;10.88;;;;;12.70;100803.00;;;;5048581;28;20722;-71
2021/07/13 01:39:55;;;;;;;22.58;11.63;;;;;12.70;100815.00;;;;5048476;28;20322;-73
2021/07/13 01:42:24;;;;;;;16.15;13.48;;;;;12.90;100822.00;;;;5048928;28;20037;-71
2021/07/13 01:44:52;;;;;;;23.63;13.82;;;;;13.00;100795.00;;;;5049069;28;20051;-70
2021/07/13 01:47:20;;;;;;;14.85;12.70;;;;;13.00;100789.00;;;;5048993;28;20029;-71
2021/07/13 01:49:48;;;;;;;19.40;13.32;;;;;12.90;100793.00;;;;5049120;28;20028;-72
2021/07/13 01:52:16;;;;;;;18.45;12.30;;;;;12.90;100807.00;;;;5048646;28;20100;-73
2021/07/13 01:54:45;;;;;;;13.23;11.70;;;;;12.90;100803.00;;;;5048385;28;20055;-71
2021/07/13 01:57:12;;;;;;;19.55;13.18;;;;;13.00;100794.00;;;;5048124;28;20373;-72
2021/07/13 01:59:44;;;;;;;16.33;12.35;;;;;12.80;100814.00;;;;5047849;28;20032;-73
2021/07/13 02:02:12;;;;;;;25.98;12.65;;;;;12.70;100819.00;;;;5047925;28;20033;-72
2021/07/13 02:04:41;;;;;;;21.65;13.20;;;;;12.80;100827.00;;;;5047854;28;20068;-70
2021/07/13 02:07:09;;;;;;;22.17;12.65;;;;;12.80;100818.00;;;;5048030;28;20064;-72
2021/07/13 02:09:37;;;;;;;16.60;11.48;;;;;12.70;100803.00;;;;5048164;28;20033;-71
2021/07/13 02:12:05;;;;;;;13.93;12.10;;;;;12.60;100809.00;;;;5048107;28;20440;-69
2021/07/13 02:14:32;;;;;;;15.70;11.48;;;;;12.60;100796.00;;;;5047962;28;20690;-72
2021/07/13 02:16:59;;;;;;;14.68;10.95;;;;;12.50;100786.00;;;;5048254;28;20040;-71
2021/07/13 02:19:26;;;;;;;14.57;11.32;;;;;12.40;100801.00;;;;5048467;28;20039;-71
2021/07/13 02:21:52;;;;;;;13.27;11.20;;;;;12.30;100797.00;;;;5047459;28;20489;-69
2021/07/13 02:24:19;;;;;;;12.07;10.40;;;;;12.30;100807.00;;;;5048337;28;20111;-70
2021/07/13 02:26:56;;;;;;;15.63;11.88;;;;;12.40;100802.00;;;;5047543;28;20399;-73
2021/07/13 02:29:35;;;;;;;25.10;12.55;;;;;12.40;100781.00;;;;5047635;28;20037;-71
2021/07/13 02:32:10;;;;;;;15.07;12.10;;;;;12.30;100790.00;;;;5047980;28;20070;-72
2021/07/13 02:34:43;;;;;;;14.98;11.77;;;;;12.30;100768.00;;;;5047734;28;20103;-72
2021/07/13 02:37:13;;;;;;;16.17;10.88;;;;;12.30;100784.00;;;;5047463;28;20029;-73
2021/07/13 02:39:40;;;;;;;19.67;11.18;;;;;12.30;100769.00;;;;5047998;28;20029;-71
2021/07/13 02:42:08;;;;;;;14.90;11.25;;;;;12.20;100783.00;;;;5047571;28;20492;-71
2021/07/13 02:44:37;;;;;;;23.63;12.18;;;;;12.20;100771.00;;;;5047682;28;20541;-71
2021/07/13 02:47:06;;;;;;;21.35;11.77;;;;;12.40;100768.00;;;;5047735;28;20510;-73
2021/07/13 02:49:43;;;;;;;18.90;12.63;;;;;12.40;100781.00;;;;5047090;28;20032;-73
2021/07/13 02:52:14;;;;;;;18.92;12.52;;;;;12.50;100775.00;;;;5047065;28;20041;-72
2021/07/13 02:54:41;;;;;;;29.77;12.45;;;;;12.30;100770.00;;;;5047420;28;20044;-72
2021/07/13 02:57:09;;;;;;;13.57;11.23;;;;;12.30;100742.00;;;;5047248;28;20110;-72
2021/07/13 02:59:37;;;;;;;18.40;12.93;;;;;12.30;100766.00;;;;5047158;28;20036;-73
2021/07/13 03:02:04;;;;;;;23.58;13.25;;;;;12.20;100765.00;;;;5047192;28;20021;-73
2021/07/13 03:04:31;;;;;;;14.35;12.25;;;;;12.20;100771.00;;;;5047411;28;20142;-72
2021/07/13 03:06:59;;;;;;;15.55;12.40;;;;;12.30;100768.00;;;;5047343;28;20036;-73
2021/07/13 03:09:26;;;;;;;16.40;13.63;;;;;12.30;100762.00;;;;5046932;28;20871;-71
2021/07/13 03:11:53;;;;;;;14.48;12.50;;;;;12.30;100759.00;;;;5047129;28;20438;-70
2021/07/13 03:14:22;;;;;;;25.35;11.88;;;;;12.40;100748.00;;;;5046806;28;20028;-72
2021/07/13 03:16:50;;;;;;;15.00;11.82;;;;;12.30;100752.00;;;;5046729;28;20423;-72
2021/07/13 03:19:17;;;;;;;17.80;12.15;;;;;12.30;100755.00;;;;5046817;28;20041;-70
2021/07/13 03:21:52;;;;;;;17.60;11.50;;;;;12.20;100767.00;;;;5046691;28;20056;-73
2021/07/13 03:24:19;;;;;;;14.07;11.23;;;;;12.20;100765.00;;;;5046862;28;20059;-73
2021/07/13 03:26:46;;;;;;;13.95;11.60;;;;;12.20;100769.00;;;;5046544;28;20037;-72
2021/07/13 03:29:14;;;;;;;17.75;12.40;;;;;12.30;100767.00;;;;5046216;28;20037;-69
2021/07/13 03:31:42;;;;;;;18.35;11.73;;;;;12.40;100760.00;;;;5046553;28;20502;-73
2021/07/13 03:34:09;;;;;;;16.55;11.75;;;;;12.50;100763.00;;;;5046903;28;20074;-71
2021/07/13 03:36:37;;;;;;;19.17;12.05;;;;;12.40;100764.00;;;;5047438;28;20029;-73
2021/07/13 03:39:04;;;;;;;15.30;12.13;;;;;12.40;100768.00;;;;5046477;28;20028;-72
2021/07/13 03:41:32;;;;;;;18.25;12.18;;;;;12.40;100767.00;;;;5046887;28;20123;-71
2021/07/13 03:44:01;;;;;;;16.02;12.73;;;;;12.40;100755.00;;;;5046506;28;20029;-72
2021/07/13 03:46:32;;;;;;;19.63;12.25;;;;;12.40;100759.00;;;;5046203;28;20062;-73
2021/07/13 03:49:01;;;;;;;16.52;11.68;;;;;12.40;100777.00;;;;5045889;28;20032;-72
2021/07/13 03:51:38;;;;;;;17.42;11.23;;;;;12.40;100775.00;;;;5046271;28;20037;-70
2021/07/13 03:54:05;;;;;;;14.70;11.75;;;;;12.30;100751.00;;;;5046388;28;20120;-72
2021/07/13 03:56:33;;;;;;;16.40;12.07;;;;;12.30;100760.00;;;;5046453;28;20100;-71
2021/07/13 03:59:00;;;;;;;13.38;11.95;;;;;12.40;100767.00;;;;5046469;28;20033;-73
2021/07/13 04:01:27;;;;;;;18.20;12.07;;;;;12.30;100754.00;;;;5045514;28;20055;-72
2021/07/13 04:03:54;;;;;;;17.48;11.82;;;;;12.40;100747.00;;;;5046438;28;20037;-73
2021/07/13 04:06:21;;;;;;;15.82;12.13;;;;;12.40;100738.00;;;;5045993;28;20044;-73
2021/07/13 04:08:48;;;;;;;19.05;11.02;;;;;12.40;100745.00;;;;5046304;28;20047;-73
2021/07/13 04:11:14;;;;;;;18.48;11.48;;;;;12.40;100758.00;;;;5046718;28;20093;-70
2021/07/13 04:13:41;;;;;;;19.88;11.43;;;;;12.40;100739.00;;;;5045519;28;20385;-71
2021/07/13 04:16:09;;;;;;;14.57;11.90;;;;;12.40;100738.00;;;;5045685;28;20514;-71
2021/07/13 04:18:36;;;;;;;17.83;11.38;;;;;12.30;100740.00;;;;5046084;28;20082;-72
2021/07/13 04:21:03;;;;;;;12.52;11.23;;;;;12.30;100740.00;;;;5045836;28;20053;-72
2021/07/13 04:23:30;;;;;;;21.50;12.90;;;;;12.40;100730.00;;;;5046333;28;20056;-72
2021/07/13 04:25:56;;;;;;;16.33;12.55;;;;;12.30;100739.00;;;;5045594;28;20029;-72
2021/07/13 04:28:23;;;;;;;16.92;11.32;;;;;12.20;100746.00;;;;5046324;28;20047;-72
2021/07/13 04:30:50;;;;;;;16.00;11.65;;;;;12.30;100746.00;;;;5046435;28;20346;-70
2021/07/13 04:33:16;;;;;;;15.23;9.93;;;;;12.30;100755.00;;;;5046672;28;20040;-70
2021/07/13 04:35:43;;;;;;;21.13;11.40;;;;;12.30;100747.00;;;;5045856;28;20055;-70
2021/07/13 04:38:09;;;;;;;17.13;12.13;;;;;12.30;100741.00;;;;5045939;28;20086;-70
2021/07/13 04:40:36;;;;;;;15.05;12.75;;;;;12.30;100742.00;;;;5046104;28;20493;-72
2021/07/13 04:43:03;;;;;;;18.52;11.93;;;;;12.30;100761.00;;;;5044359;28;20031;-73
2021/07/13 04:45:29;;;;;;;19.20;12.43;;;;;12.30;100742.00;;;;5046268;28;20063;-71
2021/07/13 04:47:56;;;;;;;14.10;11.40;;;;;12.30;100758.00;;;;5045731;28;20025;-72
2021/07/13 04:50:23;;;;;;;20.33;12.95;;;;;12.30;100742.00;;;;5045754;28;20029;-71
2021/07/13 04:52:50;;;;;;;18.83;12.45;;;;;12.30;100750.00;;;;5046373;28;20029;-72
2021/07/13 04:55:17;;;;;;;15.52;12.50;;;;;12.30;100761.00;;;;5045978;28;20166;-73
2021/07/13 04:57:45;;;;;;;12.95;11.63;;;;;12.40;100741.00;;;;5045897;28;20029;-72
2021/07/13 05:00:13;;;;;;;15.55;12.27;;;;;12.30;100734.00;;;;5045663;28;20037;-73
2021/07/13 05:02:40;;;;;;;15.80;12.68;;;;;12.30;100734.00;;;;5049293;28;20025;-73
2021/07/13 05:05:10;;;;;;;16.77;11.10;;;;;12.30;100748.00;;;;5049627;28;20035;-70
2021/07/13 05:07:44;;;;;;;18.50;12.35;;;;;12.30;100737.00;;;;5049074;28;20040;-70
2021/07/13 05:10:13;;;;;;;22.00;12.07;;;;;12.40;100727.00;;;;5050006;28;20029;-73
2021/07/13 05:12:40;;;;;;;21.48;12.02;;;;;12.40;100726.00;;;;5049070;28;20029;-72
2021/07/13 05:15:08;;;;;;;19.33;12.23;;;;;12.40;100727.00;;;;5049068;28;20068;-72
2021/07/13 05:17:36;;;;;;;17.65;12.35;;;;;12.40;100718.00;;;;5047332;28;20033;-70
2021/07/13 05:20:06;;;;;;;17.40;12.30;;;;;12.30;100721.00;;;;5049423;28;20085;-69
2021/07/13 05:22:34;;;;;;;15.43;11.93;;;;;12.30;100713.00;;;;5049270;28;20048;-70
2021/07/13 05:25:01;;;;;;;21.77;12.18;;;;;12.30;100719.00;;;;5049100;28;20510;-73
2021/07/13 05:27:27;;;;;;;14.27;11.48;;;;;12.30;100740.00;;;;5049223;28;20553;-71
2021/07/13 05:29:54;;;;;;;13.68;10.88;;;;;12.30;100714.00;;;;5048924;28;20087;-70
2021/07/13 05:32:21;;;;;;;15.32;11.25;;;;;12.20;100724.00;;;;5048726;28;20041;-72
2021/07/13 05:34:47;;;;;;;18.52;11.52;;;;;12.20;100718.00;;;;5048733;28;20020;-72
2021/07/13 05:37:14;;;;;;;15.90;11.95;;;;;12.20;100709.00;;;;5048902;28;20036;-73
2021/07/13 05:39:40;;;;;;;14.93;11.90;;;;;12.20;100708.00;;;;5048281;28;20024;-71
2021/07/13 05:42:10;;;;;;;21.08;12.55;;;;;12.20;100737.00;;;;5049359;28;20053;-72
2021/07/13 05:44:36;;;;;;;18.52;11.80;;;;;12.20;100703.00;;;;5048827;28;20035;-71
2021/07/13 05:47:03;;;;;;;17.98;11.68;;;;;12.20;100714.00;;;;5049016;28;20066;-71
2021/07/13 05:49:30;;;;;;;21.02;11.90;;;;;12.20;100708.00;;;;5048188;28;20041;-73
2021/07/13 05:51:56;;;;;;;13.68;11.63;;;;;12.20;100714.00;;;;5048760;28;20082;-71
2021/07/13 05:54:23;;;;;;;17.67;11.68;;;;;12.10;100712.00;;;;5049137;28;20032;-73
2021/07/13 05:56:50;;;;;;;15.88;12.07;;;;;12.00;100723.00;;;;5048194;28;20035;-72
2021/07/13 05:59:16;;;;;;;20.45;11.90;;;;;12.10;100717.00;;;;5047331;28;20130;-70
2021/07/13 06:01:43;;;;;;;18.20;11.80;;;;;12.20;100716.00;;;;5048298;28;20139;-70
2021/07/13 06:04:09;;;;;;;18.70;12.13;;;;;12.20;100703.00;;;;5048148;28;20025;-72
2021/07/13 06:06:36;;;;;;;17.05;11.07;;;;;12.20;100698.00;;;;5048695;28;20033;-73
2021/07/13 06:09:03;;;;;;;19.13;12.68;;;;;12.30;100698.00;;;;5048202;28;20119;-72
2021/07/13 06:11:30;;;;;;;14.80;11.55;;;;;12.30;100706.00;;;;5048764;28;20064;-71
2021/07/13 06:13:56;;;;;;;15.77;11.88;;;;;12.40;100699.00;;;;5048014;28;20036;-71
2021/07/13 06:16:23;;;;;;;19.08;12.18;;;;;12.40;100719.00;;;;5048186;28;20032;-71
2021/07/13 06:18:49;;;;;;;17.08;10.73;;;;;12.40;100696.00;;;;5047754;28;20075;-70
2021/07/13 06:21:16;;;;;;;22.27;11.27;;;;;12.40;100702.00;;;;5047655;28;20531;-71
2021/07/13 06:23:42;;;;;;;15.27;11.18;;;;;12.30;100690.00;;;;5048032;28;20585;-72
2021/07/13 06:26:09;;;;;;;19.63;12.38;;;;;12.40;100704.00;;;;5047907;28;20028;-70
2021/07/13 06:28:36;;;;;;;17.27;11.45;;;;;12.30;100705.00;;;;5047624;28;20029;-73
2021/07/13 06:31:03;;;;;;;17.23;11.52;;;;;12.30;100702.00;;;;5047639;28;20033;-72
2021/07/13 06:33:30;;;;;;;14.65;11.38;;;;;12.30;100711.00;;;;5047309;28;20396;-72
2021/07/13 06:35:56;;;;;;;20.63;12.40;;;;;12.30;100700.00;;;;5047916;28;20028;-73
2021/07/13 06:38:24;;;;;;;20.88;11.55;;;;;12.20;100707.00;;;;5047544;28;20071;-72
2021/07/13 06:40:50;;;;;;;14.52;11.63;;;;;12.20;100711.00;;;;5048025;28;20492;-73
2021/07/13 06:43:17;;;;;;;17.20;11.25;;;;;12.20;100715.00;;;;5047862;28;20064;-72
2021/07/13 06:45:43;;;;;;;18.08;11.25;;;;;12.20;100719.00;;;;5047188;28;20399;-72
2021/07/13 06:48:10;;;;;;;17.70;11.63;;;;;12.30;100719.00;;;;5047683;28;20033;-73
2021/07/13 06:50:37;;;;;;;19.58;10.65;;;;;12.30;100708.00;;;;5047739;28;20029;-71
2021/07/13 06:53:03;;;;;;;16.60;11.77;;;;;12.30;100707.00;;;;5047351;28;20028;-70
2021/07/13 06:55:30;;;;;;;17.42;12.75;;;;;12.30;100719.00;;;;5047433;28;20100;-71
2021/07/13 06:57:56;;;;;;;17.90;13.00;;;;;12.40;100707.00;;;;5047197;28;20033;-73
2021/07/13 07:00:23;;;;;;;17.83;12.43;;;;;12.50;100707.00;;;;5046681;28;20017;-71
2021/07/13 07:02:49;;;;;;;16.80;12.52;;;;;12.50;100713.00;;;;5047341;28;20033;-70
2021/07/13 07:05:16;;;;;;;15.15;12.02;;;;;12.50;100710.00;;;;5047223;28;20021;-71
2021/07/13 07:07:45;;;;;;;16.60;11.43;;;;;12.50;100708.00;;;;5047398;28;20056;-72
2021/07/13 07:10:13;;;;;;;20.08;11.57;;;;;12.50;100715.00;;;;5047168;28;20025;-73
2021/07/13 07:12:39;;;;;;;13.82;11.93;;;;;12.40;100697.00;;;;5046743;28;20041;-72
2021/07/13 07:15:07;;;;;;;20.13;16.65;;;;;12.50;100690.00;;;;5045824;28;20083;-71
2021/07/13 07:17:42;;;;;;;25.75;22.85;;;;;12.50;100701.00;;;;5046838;28;20488;-70
2021/07/13 07:20:09;;;;;;;16.63;13.80;;;;;12.70;100696.00;;;;5046869;28;20119;-71
2021/07/13 07:22:37;;;;;;;16.33;14.43;;;;;12.70;100703.00;;;;5046927;28;20072;-73
2021/07/13 07:25:04;;;;;;;19.23;15.35;;;;;12.70;100697.00;;;;5046030;28;20068;-72
2021/07/13 07:27:31;;;;;;;18.67;14.30;;;;;12.70;100669.00;;;;5046641;28;20491;-70
2021/07/13 07:29:57;;;;;;;18.17;12.85;;;;;12.80;100695.00;;;;5046724;28;20033;-73
2021/07/13 07:32:24;;;;;;;27.02;13.98;;;;;12.80;100695.00;;;;5047378;28;20025;-72
2021/07/13 07:34:50;;;;;;;14.93;12.75;;;;;12.80;100670.00;;;;5046878;28;20029;-73
2021/07/13 07:37:17;;;;;;;20.98;16.02;;;;;12.80;100683.00;;;;5046665;28;20024;-72
2021/07/13 07:39:43;;;;;;;19.38;13.57;;;;;12.80;100684.00;;;;5046422;28;20074;-70
2021/07/13 07:42:10;;;;;;;20.65;12.88;;;;;12.80;100671.00;;;;5046263;28;20476;-73
2021/07/13 07:44:37;;;;;;;15.57;11.98;;;;;12.80;100678.00;;;;5046543;28;20468;-70
2021/07/13 07:47:03;;;;;;;15.00;11.73;;;;;12.90;100686.00;;;;5046557;28;20144;-70
2021/07/13 07:49:30;;;;;;;14.80;10.38;;;;;12.80;100682.00;;;;5046781;28;20029;-71
2021/07/13 07:51:57;;;;;;;22.27;10.82;;;;;12.90;100690.00;;;;5046407;28;20116;-70
2021/07/13 07:54:23;;;;;;;14.35;12.43;;;;;12.90;100669.00;;;;5045791;28;20024;-71
2021/07/13 07:56:50;;;;;;;21.08;12.13;;;;;12.90;100686.00;;;;5046948;28;20029;-72
2021/07/13 07:59:18;;;;;;;15.10;11.35;;;;;12.90;100673.00;;;;5046735;28;20029;-72
2021/07/13 08:01:45;;;;;;;18.77;12.68;;;;;12.90;100679.00;;;;5046025;28;20547;-72
2021/07/13 08:04:11;;;;;;;16.60;13.05;;;;;12.90;100678.00;;;;5046439;28;20024;-74
2021/07/13 08:06:38;;;;;;;22.90;13.05;;;;;12.90;100681.00;;;;5046149;28;20400;-71
2021/07/13 08:09:07;;;;;;;13.70;11.88;;;;;12.90;100675.00;;;;5046165;28;20032;-74
2021/07/13 08:11:35;;;;;;;14.23;11.50;;;;;13.00;100668.00;;;;5046271;28;20033;-73
2021/07/13 08:14:04;;;;;;;16.92;11.93;;;;;13.10;100675.00;;;;5046460;28;20029;-73
2021/07/13 08:16:32;;;;;;;20.98;12.05;;;;;13.10;100683.00;;;;5045993;28;20515;-71
2021/07/13 08:18:58;;;;;;;16.48;11.85;;;;;13.10;100669.00;;;;5045398;28;20029;-71
2021/07/13 08:21:25;;;;;;;22.55;14.88;;;;;13.10;100678.00;;;;5045963;28;20144;-70
2021/07/13 08:23:51;;;;;;;17.77;11.57;;;;;13.00;100690.00;;;;5046297;28;20032;-71
2021/07/13 08:26:18;;;;;;;20.85;14.60;;;;;13.10;100683.00;;;;5046070;28;20137;-71
2021/07/13 08:28:45;;;;;;;18.17;12.32;;;;;13.10;100690.00;;;;5045979;28;20040;-70
2021/07/13 08:31:11;;;;;;;16.58;14.65;;;;;13.10;100684.00;;;;5046142;28;20025;-72
2021/07/13 08:33:38;;;;;;;24.67;13.90;;;;;13.10;100686.00;;;;5045731;28;20033;-73
2021/07/13 08:36:04;;;;;;;14.63;12.45;;;;;13.10;100695.00;;;;5046831;28;20033;-73
2021/07/13 08:38:31;;;;;;;17.92;11.10;;;;;13.10;100691.00;;;;5049696;28;20033;-73
2021/07/13 08:40:58;;;;;;;16.05;10.60;;;;;13.00;100688.00;;;;5049872;28;20029;-72
2021/07/13 08:43:25;;;;;;;14.32;12.32;;;;;13.10;100694.00;;;;5047701;28;20090;-72
2021/07/13 08:45:53;;;;;;;13.45;11.50;;;;;13.20;100706.00;;;;5050023;28;20090;-73
2021/07/13 08:48:22;;;;;;;16.95;11.73;;;;;13.20;100693.00;;;;5049955;28;20500;-72
2021/07/13 08:50:57;;;;;;;16.00;13.48;;;;;13.30;100681.00;;;;5049448;28;20500;-70
2021/07/13 08:53:24;;;;;;;18.35;10.80;;;;;13.30;100684.00;;;;5050279;28;20044;-69
2021/07/13 08:55:54;;;;;;;16.88;11.50;;;;;13.30;100678.00;;;;5049734;28;20131;-72
2021/07/13 08:58:23;;;;;;;18.58;10.60;;;;;13.30;100679.00;;;;5049462;28;20032;-71
2021/07/13 09:00:50;;;;;;;19.00;10.65;;;;;13.30;100698.00;;;;5049559;28;20123;-73
2021/07/13 09:03:21;;;;;;;13.45;10.85;;;;;13.30;100694.00;;;;5049356;28;20029;-73
2021/07/13 09:05:57;;;;;;;18.70;10.73;;;;;13.30;100704.00;;;;5049489;28;20074;-71
2021/07/13 09:08:25;;;;;;;16.60;10.43;;;;;13.20;100710.00;;;;5049047;28;20484;-70
2021/07/13 09:11:04;;;;;;;13.60;10.55;;;;;13.20;100690.00;;;;5049187;28;20128;-74
2021/07/13 09:13:35;;;;;;;14.80;10.38;;;;;13.20;100700.00;;;;5049395;28;20426;-70
2021/07/13 09:16:02;;;;;;;;;;;;;13.20;100704.00;;;;5050131;28;20041;-73
2021/07/13 09:18:39;;;;;;;23.20;11.18;;;;;13.10;100698.00;;;;5049901;28;19964;-72
2021/07/13 09:21:19;;;;;;;18.15;11.25;;;;;13.20;100692.00;;;;5049233;28;20448;-72
2021/07/13 09:24:12;;;;;;;17.35;11.77;;;;;13.20;100685.00;;;;5049105;28;20064;-71
2021/07/13 09:27:00;;;;;;;15.95;13.27;;;;;13.20;100701.00;;;;5049028;28;20033;-71
2021/07/13 09:29:53;;;;;;;15.52;14.02;;;;;13.10;100694.00;;;;5048654;28;20104;-71
2021/07/13 09:32:32;;;;;;;21.95;14.18;;;;;13.10;100701.00;;;;5047066;28;20064;-73
2021/07/13 09:35:09;;;;;;;19.55;15.73;;;;;13.10;100706.00;;;;5048871;28;20062;-72
2021/07/13 09:37:47;;;;;;;20.38;13.13;;;;;13.20;100704.00;;;;5048438;28;20037;-72
2021/07/13 09:40:16;;;;;;;17.48;11.23;;;;;13.10;100715.00;;;;5048359;28;20499;-71
2021/07/13 09:42:47;;;;;;;12.55;11.25;;;;;13.10;100713.00;;;;5048373;28;20033;-73
2021/07/13 09:45:26;;;;;;;16.77;11.02;;;;;13.10;100710.00;;;;5049052;28;20037;-73
2021/07/13 09:47:55;;;;;;;12.65;9.90;;;;;13.20;100707.00;;;;5047634;28;20048;-73
2021/07/13 09:50:36;;;;;;;27.88;11.95;;;;;13.20;100718.00;;;;5047976;28;20025;-74
2021/07/13 09:53:05;;;;;;;30.00;10.65;;;;;13.10;100712.00;;;;5045400;28;20054;-74
2021/07/13 09:55:32;;;;;;;23.48;10.43;;;;;13.00;100717.00;;;;5046887;28;20040;-74
2021/07/13 09:58:14;;;;;;;14.80;9.68;;;;;13.00;100711.00;;;;5048723;28;20515;-73
2021/07/13 10:00:42;;;;;;;17.27;11.18;;;;;13.10;100737.00;;;;5048115;28;20025;-73
2021/07/13 10:03:12;;;;;;;16.50;11.25;;;;;13.10;100726.00;;;;5048561;28;20037;-71
2021/07/13 10:05:40;;;;;;;21.98;11.68;;;;;13.10;100742.00;;;;5048327;28;20524;-72
2021/07/13 10:08:07;;;;;;;15.73;10.25;;;;;13.00;100734.00;;;;5047468;28;20404;-71
2021/07/13 10:10:38;;;;;;;26.25;10.98;;;;;12.90;100746.00;;;;5047826;28;20408;-71
2021/07/13 10:13:06;;;;;;;23.73;12.30;;;;;13.00;100741.00;;;;5048586;28;20059;-70
2021/07/13 10:15:36;;;;;;;24.48;11.07;;;;;12.90;100736.00;;;;5048432;28;20500;-73
2021/07/13 10:18:06;;;;;;;26.25;11.80;;;;;12.90;100743.00;;;;5047771;28;20096;-72
2021/07/13 10:20:36;;;;;;;33.83;11.48;;;;;12.90;100755.00;;;;5048420;28;20032;-71
2021/07/13 10:23:05;;;;;;;26.65;12.65;;;;;13.00;100756.00;;;;5048235;28;20086;-72
2021/07/13 10:25:43;;;;;;;27.50;11.93;;;;;13.00;100760.00;;;;5048784;28;20136;-71
2021/07/13 10:28:11;;;;;;;24.88;11.75;;;;;13.00;100749.00;;;;5048320;28;20029;-73
2021/07/13 10:30:41;;;;;;;18.20;11.32;;;;;13.10;100756.00;;;;5047777;28;20041;-70
2021/07/13 10:33:31;;;;;;;19.42;12.40;;;;;13.20;100752.00;;;;5048131;28;20037;-72
2021/07/13 10:36:31;;;;;;;27.08;11.82;;;;;13.30;100772.00;;;;5048068;28;20021;-73
2021/07/13 10:39:26;;;;;;;14.18;10.45;;;;;13.30;100760.00;;;;5046476;28;20033;-73
2021/07/13 10:41:54;;;;;;;18.30;11.27;;;;;13.30;100770.00;;;;5047701;28;20112;-71
2021/07/13 10:44:46;;;;;;;19.70;11.85;;;;;13.40;100763.00;;;;5048192;28;20051;-73
2021/07/13 10:48:02;;;;;;;25.38;11.45;;;;;13.50;100770.00;;;;5045702;28;20098;-72
2021/07/13 10:50:29;;;;;;;24.20;11.32;;;;;13.60;100767.00;;;;5032833;28;20048;-71
2021/07/13 10:52:59;;;;;;;19.38;10.93;;;;;13.80;100762.00;;;;5047475;28;20484;-72
2021/07/13 10:55:31;;;;;;;20.23;10.93;;;;;14.00;100775.00;;;;5047162;28;20021;-71
2021/07/13 10:58:14;;;;;;;18.45;10.23;;;;;14.00;100783.00;;;;5047169;28;20033;-70
2021/07/13 11:00:57;;;;;;;23.33;10.82;;;;;14.10;100759.00;;;;5046986;28;20044;-73
2021/07/13 11:03:30;;;;;;;17.15;9.68;;;;;14.20;100759.00;;;;5047328;28;20029;-72
2021/07/13 11:06:39;;;;;;;16.77;9.65;;;;;15.10;100738.00;;;;5047183;28;20028;-71
2021/07/13 11:09:24;;;;;;;23.33;9.65;;;;;15.00;100758.00;;;;5042411;28;20040;-73
2021/07/13 11:11:52;;;;;;;26.45;9.82;;;;;15.00;100766.00;;;;5047096;28;20054;-70
2021/07/13 11:14:19;;;;;;;22.30;9.82;;;;;14.90;100777.00;;;;5047462;28;20086;-72
2021/07/13 11:16:50;;;;;;;22.00;9.57;;;;;15.40;100764.00;;;;5047167;28;20108;-74
2021/07/13 11:19:17;;;;;;;19.67;9.10;;;;;15.60;100759.00;;;;5046965;28;20040;-72
2021/07/13 11:21:50;;;;;;;21.00;9.40;;;;;15.90;100765.00;;;;5045907;28;20420;-73
2021/07/13 11:24:24;;;;;;;32.40;9.48;;;;;16.50;100743.00;;;;5046636;28;20095;-72
2021/07/13 11:26:56;;;;;;;14.45;8.45;;;;;16.60;100738.00;;;;5046263;28;20413;-72
2021/07/13 11:29:24;;;;;;;23.95;8.75;;;;;17.10;100734.00;;;;5046682;28;20082;-69
2021/07/13 11:31:56;;;;;;;19.10;8.70;;;;;17.10;100769.00;;;;5046372;28;20036;-72
2021/07/13 11:34:25;;;;;;;17.55;8.52;;;;;16.50;100779.00;;;;5046000;28;20056;-73
2021/07/13 11:36:53;;;;;;;17.45;8.30;;;;;16.80;100741.00;;;;5046760;28;20056;-71
2021/07/13 11:39:25;;;;;;;15.10;8.60;;;;;17.60;100778.00;;;;5046339;28;20032;-73
2021/07/13 11:41:54;;;;;;;14.13;8.38;;;;;17.70;100731.00;;;;5047557;28;20365;-73
2021/07/13 11:44:22;;;;;;;31.45;8.32;;;;;18.60;100692.00;;;;5046762;28;20025;-72
2021/07/13 11:46:51;;;;;;;32.97;8.45;;;;;19.30;100707.00;;;;5046581;28;20064;-75
2021/07/13 11:49:20;;;;;;;25.58;8.15;;;;;19.50;100727.00;;;;5046345;28;20037;-71
2021/07/13 11:51:55;;;;;;;13.13;7.88;;;;;19.70;100732.00;;;;5046120;28;20146;-74
2021/07/13 11:54:26;;;;;;;35.97;9.80;;;;;19.30;100752.00;;;;5045950;28;20032;-70
2021/07/13 11:56:54;;;;;;;17.73;8.15;;;;;18.60;100769.00;;;;5046236;28;20036;-72
2021/07/13 11:59:24;;;;;;;16.58;8.10;;;;;18.10;100795.00;;;;5046505;28;20043;-70
2021/07/13 12:01:54;;;;;;;16.45;8.90;;;;;18.00;100778.00;;;;5046274;28;20032;-73
2021/07/13 12:04:25;;;;;;;16.33;8.80;;;;;17.90;100792.00;;;;5046097;28;20553;-72